Thunderstorms From: 22-05-2018 15:00 Until: 23-05-2018 15:00 warning for: Thunderstorms Level: Yellow info button

Although rather usual in this region, locally or potentially dangerous phenomena are expected. (such as local winds, summer thunderstorms, rising streams or high waves) Be aware and pay attention to the latest weather updates, especially if you carry out activities exposed to weather or close to a stream or shoreline. 


Meteo18 Weather Cam more information Meteo18 Weather Cam


warning for Thunderstorms more information blitzortung!


Rain radar more information rain snow radar


Visit our other weather sites:

Template documentation
and downloads

And another site



Weather Underground History page Text

Daily Summary for December 31, 2017 Units:  Both    English   Metric
« Previous Day
Next Day »
Daily Weekly Monthly Yearly Custom
  High: Low: Average:
Temperature: TemperatureC °F /  -17.8 °C 8.3 °F /  -13.2 °C 11.5 °F /  -11.4 °C
Dew Point: DewpointC °F /  -17.8 °C 6.3 °F /  -14.3 °C 8.9 °F /  -12.8 °C
Humidity: Humidity % 64 % 84 %
Wind Speed: WindSpeedKMH mph /  0 km/h - 15.9 mph /  25.6 km/h
Wind Gust: WindSpeedGustKMH mph /  0 km/h - -
Wind:- - SW
Pressure: PressurehPa in /  0 hPa 1007.0 in /  34097 hPa -
Precipitation: 4.6 in /  116.84 mm    
Historical Graphs
 
 
Tabular Data for December 31, 2017
Time Temperature Dew Point Pressure Wind Wind Speed Wind Gust Humidity Rainfall Rate (Hourly)
TemperatureC °F /  -17.8 °C DewpointC °F /  -17.8 °C PressurehPa in /  0 hPa Calm     Humidity % HourlyPrecipMM in /  0 mm
00:02 12.2 °F /  -11 °C 10.4 °F /  -12 °C 1017.5 in /  34452.6 hPa SSW 16.3 mph /  26.2 km/h 27.4 mph /  44.1 km/h 89 % 0.0 in /  0 mm
00:08 12.1 °F /  -11.1 °C 10.3 °F /  -12.1 °C 1017.5 in /  34452.6 hPa SW 19.5 mph /  31.4 km/h 29.0 mph /  46.7 km/h 89 % 0.0 in /  0 mm
00:14 12.1 °F /  -11.1 °C 10.5 °F /  -11.9 °C 1017.5 in /  34452.6 hPa SW 11.1 mph /  17.9 km/h 19.3 mph /  31.1 km/h 90 % 0.0 in /  0 mm
00:20 11.9 °F /  -11.2 °C 10.3 °F /  -12.1 °C 1017.8 in /  34462.7 hPa SW 16.3 mph /  26.2 km/h 24.1 mph /  38.8 km/h 90 % 0.0 in /  0 mm
00:26 11.8 °F /  -11.2 °C 10.4 °F /  -12 °C 1017.5 in /  34452.6 hPa SSW 13.0 mph /  20.9 km/h 25.7 mph /  41.4 km/h 91 % 0.0 in /  0 mm
00:32 11.6 °F /  -11.3 °C 10.3 °F /  -12.1 °C 1017.5 in /  34452.6 hPa SW 17.7 mph /  28.5 km/h 20.9 mph /  33.6 km/h 92 % 0.0 in /  0 mm
00:38 11.4 °F /  -11.4 °C 10.3 °F /  -12.1 °C 1017.5 in /  34452.6 hPa SW 17.7 mph /  28.5 km/h 19.3 mph /  31.1 km/h 93 % 0.0 in /  0 mm
00:44 11.4 °F /  -11.4 °C 10.5 °F /  -11.9 °C 1017.5 in /  34452.6 hPa SW 22.7 mph /  36.5 km/h 24.1 mph /  38.8 km/h 94 % 0.0 in /  0 mm
00:50 11.4 °F /  -11.4 °C 10.5 °F /  -11.9 °C 1017.5 in /  34452.6 hPa WSW 7.9 mph /  12.7 km/h 22.5 mph /  36.2 km/h 94 % 0.0 in /  0 mm
00:56 11.3 °F /  -11.5 °C 10.4 °F /  -12 °C 1017.5 in /  34452.6 hPa SW 13.0 mph /  20.9 km/h 22.5 mph /  36.2 km/h 94 % 0.0 in /  0 mm
01:02 11.3 °F /  -11.5 °C 10.4 °F /  -12 °C 1017.5 in /  34452.6 hPa SW 11.1 mph /  17.9 km/h 16.1 mph /  25.9 km/h 94 % 0.0 in /  0 mm
01:08 11.3 °F /  -11.5 °C 10.5 °F /  -11.9 °C 1017.5 in /  34452.6 hPa WSW 6.4 mph /  10.3 km/h 9.7 mph /  15.6 km/h 95 % 0.0 in /  0 mm
01:12 11.3 °F /  -11.5 °C 10.5 °F /  -11.9 °C 1017.5 in /  34452.6 hPa SW 11.1 mph /  17.9 km/h 12.9 mph /  20.8 km/h 95 % 0.0 in /  0 mm
01:19 11.3 °F /  -11.5 °C 10.5 °F /  -11.9 °C 1017.2 in /  34442.4 hPa SW 16.3 mph /  26.2 km/h 24.1 mph /  38.8 km/h 95 % 0.0 in /  0 mm
01:24 11.3 °F /  -11.5 °C 10.4 °F /  -12 °C 1017.2 in /  34442.4 hPa SSW 16.3 mph /  26.2 km/h 20.9 mph /  33.6 km/h 94 % 0.0 in /  0 mm
01:30 11.4 °F /  -11.4 °C 10.5 °F /  -11.9 °C 1017.2 in /  34442.4 hPa WSW 9.7 mph /  15.6 km/h 20.9 mph /  33.6 km/h 94 % 0.0 in /  0 mm
01:37 11.4 °F /  -11.4 °C 10.3 °F /  -12.1 °C 1017.2 in /  34442.4 hPa SW 14.3 mph /  23 km/h 19.3 mph /  31.1 km/h 93 % 0.0 in /  0 mm
01:42 11.4 °F /  -11.4 °C 10.3 °F /  -12.1 °C 1017.2 in /  34442.4 hPa SSW 9.7 mph /  15.6 km/h 22.5 mph /  36.2 km/h 93 % 0.0 in /  0 mm
01:49 11.5 °F /  -11.4 °C 10.4 °F /  -12 °C 1017.2 in /  34442.4 hPa WSW 11.1 mph /  17.9 km/h 20.9 mph /  33.6 km/h 93 % 0.0 in /  0 mm
01:55 11.6 °F /  -11.3 °C 10.3 °F /  -12.1 °C 1017.2 in /  34442.4 hPa SW 9.7 mph /  15.6 km/h 19.3 mph /  31.1 km/h 92 % 0.0 in /  0 mm
02:01 11.6 °F /  -11.3 °C 10.3 °F /  -12.1 °C 1016.8 in /  34428.8 hPa WSW 11.1 mph /  17.9 km/h 16.1 mph /  25.9 km/h 92 % 0.0 in /  0 mm
02:07 11.6 °F /  -11.3 °C 10.3 °F /  -12.1 °C 1016.8 in /  34428.8 hPa SW 17.7 mph /  28.5 km/h 22.5 mph /  36.2 km/h 92 % 0.0 in /  0 mm
02:13 11.7 °F /  -11.3 °C 10.3 °F /  -12.1 °C 1016.8 in /  34428.8 hPa SSW 7.9 mph /  12.7 km/h 22.5 mph /  36.2 km/h 91 % 0.0 in /  0 mm
02:19 11.7 °F /  -11.3 °C 10.3 °F /  -12.1 °C 1016.8 in /  34428.8 hPa SW 11.1 mph /  17.9 km/h 19.3 mph /  31.1 km/h 91 % 0.0 in /  0 mm
02:25 11.6 °F /  -11.3 °C 10.2 °F /  -12.1 °C 1016.8 in /  34428.8 hPa SW 16.3 mph /  26.2 km/h 19.3 mph /  31.1 km/h 91 % 0.0 in /  0 mm
02:31 11.6 °F /  -11.3 °C 10.2 °F /  -12.1 °C 1016.8 in /  34428.8 hPa SW 11.1 mph /  17.9 km/h 20.9 mph /  33.6 km/h 91 % 0.0 in /  0 mm
02:35 11.7 °F /  -11.3 °C 10.3 °F /  -12.1 °C 1016.8 in /  34428.8 hPa SW 13.0 mph /  20.9 km/h 20.9 mph /  33.6 km/h 91 % 0.0 in /  0 mm
02:41 11.7 °F /  -11.3 °C 10.3 °F /  -12.1 °C 1016.5 in /  34418.7 hPa SW 13.0 mph /  20.9 km/h 19.3 mph /  31.1 km/h 91 % 0.0 in /  0 mm
02:45 11.7 °F /  -11.3 °C 10.3 °F /  -12.1 °C 1016.8 in /  34428.8 hPa SW 9.7 mph /  15.6 km/h 22.5 mph /  36.2 km/h 91 % 0.0 in /  0 mm
02:51 11.7 °F /  -11.3 °C 10.1 °F /  -12.2 °C 1016.8 in /  34428.8 hPa SW 13.0 mph /  20.9 km/h 17.7 mph /  28.5 km/h 90 % 0.0 in /  0 mm
02:57 11.8 °F /  -11.2 °C 10.2 °F /  -12.1 °C 1016.8 in /  34428.8 hPa SW 16.3 mph /  26.2 km/h 25.7 mph /  41.4 km/h 90 % 0.0 in /  0 mm
03:03 11.9 °F /  -11.2 °C 10.1 °F /  -12.2 °C 1016.8 in /  34428.8 hPa SSW 16.3 mph /  26.2 km/h 25.7 mph /  41.4 km/h 89 % 0.0 in /  0 mm
03:07 11.8 °F /  -11.2 °C 10.2 °F /  -12.1 °C 1016.8 in /  34428.8 hPa SSW 9.7 mph /  15.6 km/h 16.1 mph /  25.9 km/h 90 % 0.0 in /  0 mm
03:13 11.7 °F /  -11.3 °C 10.1 °F /  -12.2 °C 1016.8 in /  34428.8 hPa SSW 16.3 mph /  26.2 km/h 16.3 mph /  26.2 km/h 90 % 0.0 in /  0 mm
03:19 11.6 °F /  -11.3 °C 10.2 °F /  -12.1 °C 1016.8 in /  34428.8 hPa SW 9.7 mph /  15.6 km/h 14.5 mph /  23.3 km/h 91 % 0.0 in /  0 mm
03:23 11.6 °F /  -11.3 °C 10.2 °F /  -12.1 °C 1016.8 in /  34428.8 hPa SSW 13.0 mph /  20.9 km/h 16.1 mph /  25.9 km/h 91 % 0.0 in /  0 mm
03:29 11.6 °F /  -11.3 °C 10.2 °F /  -12.1 °C 1016.5 in /  34418.7 hPa SW 22.7 mph /  36.5 km/h 22.7 mph /  36.5 km/h 91 % 0.0 in /  0 mm
03:35 11.6 °F /  -11.3 °C 10.2 °F /  -12.1 °C 1016.5 in /  34418.7 hPa SSW 13.0 mph /  20.9 km/h 22.5 mph /  36.2 km/h 91 % 0.0 in /  0 mm
03:41 11.6 °F /  -11.3 °C 10.0 °F /  -12.2 °C 1016.5 in /  34418.7 hPa SSW 9.7 mph /  15.6 km/h 25.7 mph /  41.4 km/h 90 % 0.0 in /  0 mm
03:47 11.7 °F /  -11.3 °C 10.1 °F /  -12.2 °C 1016.1 in /  34405.1 hPa SW 27.4 mph /  44.1 km/h 27.4 mph /  44.1 km/h 90 % 0.0 in /  0 mm
03:53 11.8 °F /  -11.2 °C 10.0 °F /  -12.2 °C 1016.1 in /  34405.1 hPa SSW 7.9 mph /  12.7 km/h 22.5 mph /  36.2 km/h 89 % 0.0 in /  0 mm
03:59 11.8 °F /  -11.2 °C 10.0 °F /  -12.2 °C 1016.1 in /  34405.1 hPa South 11.1 mph /  17.9 km/h 19.3 mph /  31.1 km/h 89 % 0.0 in /  0 mm
04:05 11.7 °F /  -11.3 °C 9.9 °F /  -12.3 °C 1016.1 in /  34405.1 hPa SW 16.3 mph /  26.2 km/h 19.3 mph /  31.1 km/h 89 % 0.0 in /  0 mm
04:07 11.7 °F /  -11.3 °C 9.9 °F /  -12.3 °C 1016.1 in /  34405.1 hPa South 7.9 mph /  12.7 km/h 22.5 mph /  36.2 km/h 89 % 0.0 in /  0 mm
04:15 11.9 °F /  -11.2 °C 10.0 °F /  -12.2 °C 1016.1 in /  34405.1 hPa SSW 11.1 mph /  17.9 km/h 19.3 mph /  31.1 km/h 88 % 0.0 in /  0 mm
04:23 11.9 °F /  -11.2 °C 10.0 °F /  -12.2 °C 1016.1 in /  34405.1 hPa SW 20.9 mph /  33.6 km/h 22.5 mph /  36.2 km/h 88 % 0.0 in /  0 mm
04:29 11.9 °F /  -11.2 °C 9.8 °F /  -12.3 °C 1016.1 in /  34405.1 hPa SSW 14.3 mph /  23 km/h 25.7 mph /  41.4 km/h 87 % 0.0 in /  0 mm
04:35 11.9 °F /  -11.2 °C 9.8 °F /  -12.3 °C 1016.1 in /  34405.1 hPa SW 14.3 mph /  23 km/h 22.5 mph /  36.2 km/h 87 % 0.0 in /  0 mm
04:41 11.9 °F /  -11.2 °C 10.0 °F /  -12.2 °C 1016.1 in /  34405.1 hPa SSW 9.7 mph /  15.6 km/h 24.1 mph /  38.8 km/h 88 % 0.0 in /  0 mm
04:43 11.9 °F /  -11.2 °C 10.0 °F /  -12.2 °C 1016.1 in /  34405.1 hPa SW 16.3 mph /  26.2 km/h 24.1 mph /  38.8 km/h 88 % 0.0 in /  0 mm
04:49 11.9 °F /  -11.2 °C 9.8 °F /  -12.3 °C 1016.1 in /  34405.1 hPa WSW 14.3 mph /  23 km/h 19.3 mph /  31.1 km/h 87 % 0.0 in /  0 mm
04:55 11.8 °F /  -11.2 °C 9.9 °F /  -12.3 °C 1015.8 in /  34395 hPa WSW 17.7 mph /  28.5 km/h 22.5 mph /  36.2 km/h 88 % 0.0 in /  0 mm
05:01 11.8 °F /  -11.2 °C 9.9 °F /  -12.3 °C 1015.8 in /  34395 hPa SSW 11.1 mph /  17.9 km/h 17.7 mph /  28.5 km/h 88 % 0.0 in /  0 mm
05:07 11.7 °F /  -11.3 °C 9.8 °F /  -12.3 °C 1015.8 in /  34395 hPa SW 7.9 mph /  12.7 km/h 22.5 mph /  36.2 km/h 88 % 0.0 in /  0 mm
05:13 11.8 °F /  -11.2 °C 9.7 °F /  -12.4 °C 1015.8 in /  34395 hPa South 13.0 mph /  20.9 km/h 20.9 mph /  33.6 km/h 87 % 0.0 in /  0 mm
05:19 11.8 °F /  -11.2 °C 9.7 °F /  -12.4 °C 1015.5 in /  34384.8 hPa SW 13.0 mph /  20.9 km/h 19.3 mph /  31.1 km/h 87 % 0.0 in /  0 mm
05:25 11.8 °F /  -11.2 °C 9.7 °F /  -12.4 °C 1015.5 in /  34384.8 hPa SW 17.7 mph /  28.5 km/h 17.7 mph /  28.5 km/h 87 % 0.0 in /  0 mm
05:31 11.7 °F /  -11.3 °C 9.6 °F /  -12.4 °C 1015.5 in /  34384.8 hPa SSW 7.9 mph /  12.7 km/h 16.1 mph /  25.9 km/h 87 % 0.0 in /  0 mm
05:37 11.4 °F /  -11.4 °C 9.5 °F /  -12.5 °C 1015.1 in /  34371.3 hPa South 9.7 mph /  15.6 km/h 9.7 mph /  15.6 km/h 88 % 0.0 in /  0 mm
05:43 11.3 °F /  -11.5 °C 9.4 °F /  -12.6 °C 1015.1 in /  34371.3 hPa SSW 7.9 mph /  12.7 km/h 12.9 mph /  20.8 km/h 88 % 0.0 in /  0 mm
05:49 11.3 °F /  -11.5 °C 9.6 °F /  -12.4 °C 1015.1 in /  34371.3 hPa SW 6.4 mph /  10.3 km/h 11.3 mph /  18.2 km/h 89 % 0.0 in /  0 mm
05:55 11.2 °F /  -11.6 °C 9.5 °F /  -12.5 °C 1015.1 in /  34371.3 hPa SSE 3.2 mph /  5.1 km/h 11.3 mph /  18.2 km/h 89 % 0.0 in /  0 mm
05:57 11.2 °F /  -11.6 °C 9.5 °F /  -12.5 °C 1015.1 in /  34371.3 hPa SSW 4.7 mph /  7.6 km/h 11.3 mph /  18.2 km/h 89 % 0.0 in /  0 mm
06:03 11.2 °F /  -11.6 °C 9.5 °F /  -12.5 °C 1015.1 in /  34371.3 hPa SSW 7.9 mph /  12.7 km/h 8.0 mph /  12.9 km/h 89 % 0.0 in /  0 mm
06:09 11.2 °F /  -11.6 °C 9.5 °F /  -12.5 °C 1015.1 in /  34371.3 hPa SSW 3.2 mph /  5.1 km/h 8.0 mph /  12.9 km/h 89 % 0.0 in /  0 mm
06:15 11.1 °F /  -11.6 °C 9.4 °F /  -12.6 °C 1015.1 in /  34371.3 hPa SSE 4.7 mph /  7.6 km/h 9.7 mph /  15.6 km/h 89 % 0.0 in /  0 mm
06:21 11.0 °F /  -11.7 °C 9.3 °F /  -12.6 °C 1014.8 in /  34361.1 hPa SSW 3.2 mph /  5.1 km/h 6.4 mph /  10.3 km/h 89 % 0.0 in /  0 mm
06:27 10.9 °F /  -11.7 °C 9.3 °F /  -12.6 °C 1014.8 in /  34361.1 hPa South 4.7 mph /  7.6 km/h 8.0 mph /  12.9 km/h 90 % 0.0 in /  0 mm
06:33 10.9 °F /  -11.7 °C 9.2 °F /  -12.7 °C 1014.8 in /  34361.1 hPa South 6.4 mph /  10.3 km/h 8.0 mph /  12.9 km/h 89 % 0.0 in /  0 mm
06:37 10.8 °F /  -11.8 °C 9.2 °F /  -12.7 °C 1014.8 in /  34361.1 hPa SSE 6.4 mph /  10.3 km/h 8.0 mph /  12.9 km/h 90 % 0.0 in /  0 mm
06:43 10.8 °F /  -11.8 °C 9.2 °F /  -12.7 °C 1014.8 in /  34361.1 hPa SSW 6.4 mph /  10.3 km/h 8.0 mph /  12.9 km/h 90 % 0.0 in /  0 mm
06:49 10.7 °F /  -11.8 °C 9.1 °F /  -12.7 °C 1014.8 in /  34361.1 hPa SSW 9.7 mph /  15.6 km/h 12.9 mph /  20.8 km/h 90 % 0.0 in /  0 mm
06:55 10.7 °F /  -11.8 °C 9.1 °F /  -12.7 °C 1014.8 in /  34361.1 hPa South 9.7 mph /  15.6 km/h 11.3 mph /  18.2 km/h 90 % 0.0 in /  0 mm
07:01 10.7 °F /  -11.8 °C 9.1 °F /  -12.7 °C 1014.8 in /  34361.1 hPa South 11.1 mph /  17.9 km/h 11.3 mph /  18.2 km/h 90 % 0.0 in /  0 mm
07:07 10.7 °F /  -11.8 °C 9.1 °F /  -12.7 °C 1014.4 in /  34347.6 hPa SSW 13.0 mph /  20.9 km/h 14.5 mph /  23.3 km/h 90 % 0.0 in /  0 mm
07:13 10.7 °F /  -11.8 °C 9.1 °F /  -12.7 °C 1014.4 in /  34347.6 hPa SW 7.9 mph /  12.7 km/h 12.9 mph /  20.8 km/h 90 % 0.0 in /  0 mm
07:19 10.7 °F /  -11.8 °C 9.1 °F /  -12.7 °C 1014.8 in /  34361.1 hPa SSW 7.9 mph /  12.7 km/h 12.9 mph /  20.8 km/h 90 % 0.0 in /  0 mm
07:25 10.7 °F /  -11.8 °C 9.1 °F /  -12.7 °C 1014.8 in /  34361.1 hPa SSW 11.1 mph /  17.9 km/h 14.5 mph /  23.3 km/h 90 % 0.0 in /  0 mm
07:31 10.7 °F /  -11.8 °C 9.0 °F /  -12.8 °C 1014.8 in /  34361.1 hPa South 13.0 mph /  20.9 km/h 13.0 mph /  20.9 km/h 89 % 0.0 in /  0 mm
07:37 10.7 °F /  -11.8 °C 9.0 °F /  -12.8 °C 1014.4 in /  34347.6 hPa SSW 9.7 mph /  15.6 km/h 9.7 mph /  15.6 km/h 89 % 0.0 in /  0 mm
07:43 10.7 °F /  -11.8 °C 9.0 °F /  -12.8 °C 1014.8 in /  34361.1 hPa SSE 6.4 mph /  10.3 km/h 9.7 mph /  15.6 km/h 89 % 0.0 in /  0 mm
07:49 10.6 °F /  -11.9 °C 8.9 °F /  -12.8 °C 1014.4 in /  34347.6 hPa South 3.2 mph /  5.1 km/h 9.7 mph /  15.6 km/h 89 % 0.0 in /  0 mm
07:55 10.6 °F /  -11.9 °C 9.0 °F /  -12.8 °C 1014.4 in /  34347.6 hPa SSW 7.9 mph /  12.7 km/h 9.7 mph /  15.6 km/h 90 % 0.0 in /  0 mm
08:01 10.6 °F /  -11.9 °C 8.9 °F /  -12.8 °C 1014.4 in /  34347.6 hPa SSW 9.7 mph /  15.6 km/h 14.5 mph /  23.3 km/h 89 % 0.0 in /  0 mm
08:07 10.7 °F /  -11.8 °C 9.0 °F /  -12.8 °C 1014.4 in /  34347.6 hPa SSW 7.9 mph /  12.7 km/h 17.7 mph /  28.5 km/h 89 % 0.0 in /  0 mm
08:13 10.7 °F /  -11.8 °C 9.0 °F /  -12.8 °C 1014.4 in /  34347.6 hPa SW 17.7 mph /  28.5 km/h 17.7 mph /  28.5 km/h 89 % 0.0 in /  0 mm
08:19 10.7 °F /  -11.8 °C 9.0 °F /  -12.8 °C 1014.4 in /  34347.6 hPa SSW 17.7 mph /  28.5 km/h 17.7 mph /  28.5 km/h 89 % 0.0 in /  0 mm
08:25 10.7 °F /  -11.8 °C 8.8 °F /  -12.9 °C 1014.4 in /  34347.6 hPa SSW 6.4 mph /  10.3 km/h 16.1 mph /  25.9 km/h 88 % 0.0 in /  0 mm
08:29 10.7 °F /  -11.8 °C 8.8 °F /  -12.9 °C 1014.4 in /  34347.6 hPa SSW 9.7 mph /  15.6 km/h 14.5 mph /  23.3 km/h 88 % 0.0 in /  0 mm
08:35 10.7 °F /  -11.8 °C 9.0 °F /  -12.8 °C 1014.4 in /  34347.6 hPa SSW 11.1 mph /  17.9 km/h 14.5 mph /  23.3 km/h 89 % 0.0 in /  0 mm
08:41 10.7 °F /  -11.8 °C 9.0 °F /  -12.8 °C 1014.1 in /  34337.4 hPa South 13.0 mph /  20.9 km/h 19.3 mph /  31.1 km/h 89 % 0.0 in /  0 mm
08:45 10.7 °F /  -11.8 °C 9.0 °F /  -12.8 °C 1014.4 in /  34347.6 hPa SW 14.3 mph /  23 km/h 19.3 mph /  31.1 km/h 89 % 0.0 in /  0 mm
08:51 10.6 °F /  -11.9 °C 8.9 °F /  -12.8 °C 1014.4 in /  34347.6 hPa SSW 13.0 mph /  20.9 km/h 17.7 mph /  28.5 km/h 89 % 0.0 in /  0 mm
08:57 10.6 °F /  -11.9 °C 8.9 °F /  -12.8 °C 1014.1 in /  34337.4 hPa SSW 14.3 mph /  23 km/h 16.1 mph /  25.9 km/h 89 % 0.0 in /  0 mm
09:03 10.6 °F /  -11.9 °C 8.9 °F /  -12.8 °C 1014.1 in /  34337.4 hPa SSW 13.0 mph /  20.9 km/h 22.5 mph /  36.2 km/h 89 % 0.0 in /  0 mm
09:09 10.6 °F /  -11.9 °C 8.9 °F /  -12.8 °C 1014.1 in /  34337.4 hPa SSW 11.1 mph /  17.9 km/h 17.7 mph /  28.5 km/h 89 % 0.0 in /  0 mm
09:13 10.6 °F /  -11.9 °C 8.7 °F /  -12.9 °C 1013.8 in /  34327.3 hPa SSW 9.7 mph /  15.6 km/h 22.5 mph /  36.2 km/h 88 % 0.0 in /  0 mm
09:19 10.5 °F /  -11.9 °C 8.6 °F /  -13 °C 1014.1 in /  34337.4 hPa SSW 11.1 mph /  17.9 km/h 19.3 mph /  31.1 km/h 88 % 0.0 in /  0 mm
09:25 10.6 °F /  -11.9 °C 8.9 °F /  -12.8 °C 1014.1 in /  34337.4 hPa South 13.0 mph /  20.9 km/h 20.9 mph /  33.6 km/h 89 % 0.0 in /  0 mm
09:31 10.6 °F /  -11.9 °C 8.9 °F /  -12.8 °C 1014.1 in /  34337.4 hPa SSW 11.1 mph /  17.9 km/h 16.1 mph /  25.9 km/h 89 % 0.0 in /  0 mm
09:37 10.7 °F /  -11.8 °C 8.8 °F /  -12.9 °C 1014.1 in /  34337.4 hPa SW 11.1 mph /  17.9 km/h 17.7 mph /  28.5 km/h 88 % 0.0 in /  0 mm
09:43 10.9 °F /  -11.7 °C 9.0 °F /  -12.8 °C 1014.1 in /  34337.4 hPa SSW 17.7 mph /  28.5 km/h 19.3 mph /  31.1 km/h 88 % 0.0 in /  0 mm
09:49 11.0 °F /  -11.7 °C 8.9 °F /  -12.8 °C 1014.1 in /  34337.4 hPa South 14.3 mph /  23 km/h 19.3 mph /  31.1 km/h 87 % 0.0 in /  0 mm
09:51 10.9 °F /  -11.7 °C 9.0 °F /  -12.8 °C 1014.1 in /  34337.4 hPa South 11.1 mph /  17.9 km/h 25.7 mph /  41.4 km/h 88 % 0.0 in /  0 mm
09:57 11.0 °F /  -11.7 °C 8.9 °F /  -12.8 °C 1013.8 in /  34327.3 hPa SSW 19.5 mph /  31.4 km/h 25.7 mph /  41.4 km/h 87 % 0.0 in /  0 mm
10:05 11.1 °F /  -11.6 °C 9.0 °F /  -12.8 °C 1014.1 in /  34337.4 hPa SSW 11.1 mph /  17.9 km/h 16.1 mph /  25.9 km/h 87 % 0.0 in /  0 mm
10:11 11.1 °F /  -11.6 °C 9.0 °F /  -12.8 °C 1013.8 in /  34327.3 hPa SSW 9.7 mph /  15.6 km/h 16.1 mph /  25.9 km/h 87 % 0.0 in /  0 mm
10:17 11.2 °F /  -11.6 °C 8.9 °F /  -12.8 °C 1013.8 in /  34327.3 hPa SSW 19.5 mph /  31.4 km/h 19.5 mph /  31.4 km/h 86 % 0.0 in /  0 mm
10:23 11.2 °F /  -11.6 °C 8.9 °F /  -12.8 °C 1013.8 in /  34327.3 hPa South 20.9 mph /  33.6 km/h 20.9 mph /  33.6 km/h 86 % 0.0 in /  0 mm
10:29 11.3 °F /  -11.5 °C 9.0 °F /  -12.8 °C 1013.8 in /  34327.3 hPa SSE 9.7 mph /  15.6 km/h 17.7 mph /  28.5 km/h 86 % 0.0 in /  0 mm
10:35 11.4 °F /  -11.4 °C 9.0 °F /  -12.8 °C 1013.4 in /  34313.7 hPa SSW 9.7 mph /  15.6 km/h 25.7 mph /  41.4 km/h 85 % 0.0 in /  0 mm
10:38 11.4 °F /  -11.4 °C 9.0 °F /  -12.8 °C 1013.4 in /  34313.7 hPa SSW 9.7 mph /  15.6 km/h 25.7 mph /  41.4 km/h 85 % 0.0 in /  0 mm
10:43 11.6 °F /  -11.3 °C 9.2 °F /  -12.7 °C 1013.4 in /  34313.7 hPa SSW 14.3 mph /  23 km/h 20.9 mph /  33.6 km/h 85 % 0.0 in /  0 mm
10:49 11.7 °F /  -11.3 °C 9.1 °F /  -12.7 °C 1013.4 in /  34313.7 hPa SSW 17.7 mph /  28.5 km/h 27.4 mph /  44.1 km/h 84 % 0.0 in /  0 mm
10:52 11.7 °F /  -11.3 °C 9.1 °F /  -12.7 °C 1013.4 in /  34313.7 hPa SW 19.5 mph /  31.4 km/h 24.1 mph /  38.8 km/h 84 % 0.0 in /  0 mm
10:58 11.8 °F /  -11.2 °C 9.2 °F /  -12.7 °C 1013.4 in /  34313.7 hPa SSW 17.7 mph /  28.5 km/h 22.5 mph /  36.2 km/h 84 % 0.0 in /  0 mm
11:04 11.9 °F /  -11.2 °C 9.3 °F /  -12.6 °C 1013.1 in /  34303.6 hPa South 22.7 mph /  36.5 km/h 27.4 mph /  44.1 km/h 84 % 0.0 in /  0 mm
11:10 12.0 °F /  -11.1 °C 9.4 °F /  -12.6 °C 1013.1 in /  34303.6 hPa SSW 11.1 mph /  17.9 km/h 20.9 mph /  33.6 km/h 84 % 0.0 in /  0 mm
11:16 12.1 °F /  -11.1 °C 9.3 °F /  -12.6 °C 1013.1 in /  34303.6 hPa SSW 17.7 mph /  28.5 km/h 29.0 mph /  46.7 km/h 83 % 0.0 in /  0 mm
11:20 12.1 °F /  -11.1 °C 9.3 °F /  -12.6 °C 1012.8 in /  34293.4 hPa South 17.7 mph /  28.5 km/h 29.0 mph /  46.7 km/h 83 % 0.0 in /  0 mm
11:26 12.2 °F /  -11 °C 9.2 °F /  -12.7 °C 1012.8 in /  34293.4 hPa SW 17.7 mph /  28.5 km/h 22.5 mph /  36.2 km/h 82 % 0.0 in /  0 mm
11:30 12.2 °F /  -11 °C 9.4 °F /  -12.6 °C 1012.8 in /  34293.4 hPa SSW 17.7 mph /  28.5 km/h 25.7 mph /  41.4 km/h 83 % 0.0 in /  0 mm
11:38 12.3 °F /  -10.9 °C 9.3 °F /  -12.6 °C 1012.8 in /  34293.4 hPa SSW 16.3 mph /  26.2 km/h 20.9 mph /  33.6 km/h 82 % 0.0 in /  0 mm
11:44 12.4 °F /  -10.9 °C 9.4 °F /  -12.6 °C 1012.4 in /  34279.9 hPa SSW 14.3 mph /  23 km/h 24.1 mph /  38.8 km/h 82 % 0.0 in /  0 mm
11:50 12.5 °F /  -10.8 °C 9.3 °F /  -12.6 °C 1012.1 in /  34269.7 hPa SSW 13.0 mph /  20.9 km/h 30.6 mph /  49.2 km/h 81 % 0.0 in /  0 mm
11:52 12.5 °F /  -10.8 °C 9.3 °F /  -12.6 °C 1012.1 in /  34269.7 hPa SSW 17.7 mph /  28.5 km/h 29.0 mph /  46.7 km/h 81 % 0.0 in /  0 mm
11:58 12.7 °F /  -10.7 °C 9.5 °F /  -12.5 °C 1011.7 in /  34256.2 hPa South 17.7 mph /  28.5 km/h 25.7 mph /  41.4 km/h 81 % 0.0 in /  0 mm
12:04 12.8 °F /  -10.7 °C 9.6 °F /  -12.4 °C 1011.7 in /  34256.2 hPa SSW 14.3 mph /  23 km/h 24.1 mph /  38.8 km/h 81 % 0.0 in /  0 mm
12:10 13.1 °F /  -10.5 °C 9.5 °F /  -12.5 °C 1011.7 in /  34256.2 hPa SSW 20.9 mph /  33.6 km/h 33.8 mph /  54.4 km/h 79 % 0.0 in /  0 mm
12:14 13.3 °F /  -10.4 °C 9.9 °F /  -12.3 °C 1011.7 in /  34256.2 hPa SSW 27.4 mph /  44.1 km/h 32.2 mph /  51.8 km/h 80 % 0.0 in /  0 mm
12:20 13.5 °F /  -10.3 °C 9.5 °F /  -12.5 °C 1011.4 in /  34246 hPa SSW 27.4 mph /  44.1 km/h 38.6 mph /  62.1 km/h 77 % 0.0 in /  0 mm
12:26 13.7 °F /  -10.2 °C 9.5 °F /  -12.5 °C 1011.1 in /  34235.8 hPa SW 22.7 mph /  36.5 km/h 27.4 mph /  44.1 km/h 76 % 0.0 in /  0 mm
12:38 13.7 °F /  -10.2 °C 9.7 °F /  -12.4 °C 1010.7 in /  34222.3 hPa SW 13.0 mph /  20.9 km/h 29.0 mph /  46.7 km/h 77 % 0.0 in /  0 mm
12:44 13.8 °F /  -10.1 °C 9.4 °F /  -12.6 °C 1010.7 in /  34222.3 hPa SSW 28.8 mph /  46.3 km/h 35.4 mph /  57 km/h 75 % 0.0 in /  0 mm
12:50 13.9 °F /  -10.1 °C 9.7 °F /  -12.4 °C 1010.4 in /  34212.1 hPa SW 22.7 mph /  36.5 km/h 30.6 mph /  49.2 km/h 76 % 0.0 in /  0 mm
12:56 14.0 °F /  -10 °C 10.0 °F /  -12.2 °C 1010.4 in /  34212.1 hPa SSW 16.3 mph /  26.2 km/h 27.4 mph /  44.1 km/h 77 % 0.0 in /  0 mm
13:02 14.0 °F /  -10 °C 9.8 °F /  -12.3 °C 1010.4 in /  34212.1 hPa SSW 27.4 mph /  44.1 km/h 30.6 mph /  49.2 km/h 76 % 0.0 in /  0 mm
13:04 14.0 °F /  -10 °C 9.6 °F /  -12.4 °C 1010.0 in /  34198.6 hPa SW 14.3 mph /  23 km/h 24.1 mph /  38.8 km/h 75 % 0.0 in /  0 mm
13:10 14.1 °F /  -9.9 °C 9.9 °F /  -12.3 °C 1010.0 in /  34198.6 hPa South 16.3 mph /  26.2 km/h 30.6 mph /  49.2 km/h 76 % 0.0 in /  0 mm
13:16 14.1 °F /  -9.9 °C 9.5 °F /  -12.5 °C 1010.0 in /  34198.6 hPa SSW 17.7 mph /  28.5 km/h 27.4 mph /  44.1 km/h 74 % 0.0 in /  0 mm
13:22 14.1 °F /  -9.9 °C 9.5 °F /  -12.5 °C 1009.7 in /  34188.4 hPa SSW 19.5 mph /  31.4 km/h 30.6 mph /  49.2 km/h 74 % 0.0 in /  0 mm
13:24 14.1 °F /  -9.9 °C 9.7 °F /  -12.4 °C 1009.7 in /  34188.4 hPa SSW 14.3 mph /  23 km/h 24.1 mph /  38.8 km/h 75 % 0.0 in /  0 mm
13:32 14.2 °F /  -9.9 °C 9.8 °F /  -12.3 °C 1009.7 in /  34188.4 hPa SSW 16.3 mph /  26.2 km/h 27.4 mph /  44.1 km/h 75 % 0.0 in /  0 mm
13:38 14.2 °F /  -9.9 °C 9.8 °F /  -12.3 °C 1009.4 in /  34178.3 hPa SSW 7.9 mph /  12.7 km/h 27.4 mph /  44.1 km/h 75 % 0.0 in /  0 mm
13:44 14.3 °F /  -9.8 °C 9.9 °F /  -12.3 °C 1009.4 in /  34178.3 hPa SSW 20.9 mph /  33.6 km/h 25.7 mph /  41.4 km/h 75 % 0.0 in /  0 mm
13:50 14.3 °F /  -9.8 °C 9.7 °F /  -12.4 °C 1009.4 in /  34178.3 hPa SW 14.3 mph /  23 km/h 27.4 mph /  44.1 km/h 74 % 0.0 in /  0 mm
13:56 14.3 °F /  -9.8 °C 9.9 °F /  -12.3 °C 1009.4 in /  34178.3 hPa SSW 13.0 mph /  20.9 km/h 20.9 mph /  33.6 km/h 75 % 0.0 in /  0 mm
14:02 14.4 °F /  -9.8 °C 9.8 °F /  -12.3 °C 1009.0 in /  34164.7 hPa SW 22.7 mph /  36.5 km/h 27.4 mph /  44.1 km/h 74 % 0.0 in /  0 mm
14:08 14.4 °F /  -9.8 °C 9.8 °F /  -12.3 °C 1009.0 in /  34164.7 hPa SSW 22.7 mph /  36.5 km/h 27.4 mph /  44.1 km/h 74 % 0.0 in /  0 mm
14:14 14.6 °F /  -9.7 °C 10.0 °F /  -12.2 °C 1009.0 in /  34164.7 hPa SW 19.5 mph /  31.4 km/h 29.0 mph /  46.7 km/h 74 % 0.0 in /  0 mm
14:20 14.6 °F /  -9.7 °C 9.8 °F /  -12.3 °C 1008.7 in /  34154.6 hPa SW 17.7 mph /  28.5 km/h 25.7 mph /  41.4 km/h 73 % 0.0 in /  0 mm
14:26 14.6 °F /  -9.7 °C 9.6 °F /  -12.4 °C 1008.7 in /  34154.6 hPa SSW 17.7 mph /  28.5 km/h 25.7 mph /  41.4 km/h 72 % 0.0 in /  0 mm
14:32 14.4 °F /  -9.8 °C 9.4 °F /  -12.6 °C 1008.7 in /  34154.6 hPa SW 22.7 mph /  36.5 km/h 30.6 mph /  49.2 km/h 72 % 0.0 in /  0 mm
14:38 14.8 °F /  -9.6 °C 9.2 °F /  -12.7 °C 1008.4 in /  34144.4 hPa SSE 11.1 mph /  17.9 km/h 35.4 mph /  57 km/h 69 % 0.0 in /  0 mm
14:42 15.1 °F /  -9.4 °C 9.5 °F /  -12.5 °C 1008.4 in /  34144.4 hPa SW 17.7 mph /  28.5 km/h 25.7 mph /  41.4 km/h 69 % 0.0 in /  0 mm
14:48 15.1 °F /  -9.4 °C 9.5 °F /  -12.5 °C 1008.4 in /  34144.4 hPa WSW 32.0 mph /  51.5 km/h 32.2 mph /  51.8 km/h 69 % 0.0 in /  0 mm
14:54 15.1 °F /  -9.4 °C 8.6 °F /  -13 °C 1008.4 in /  34144.4 hPa SSW 27.4 mph /  44.1 km/h 41.8 mph /  67.3 km/h 65 % 0.0 in /  0 mm
15:00 14.9 °F /  -9.5 °C 8.4 °F /  -13.1 °C 1008.0 in /  34130.9 hPa SW 32.0 mph /  51.5 km/h 40.2 mph /  64.7 km/h 65 % 0.0 in /  0 mm
15:06 14.8 °F /  -9.6 °C 8.5 °F /  -13.1 °C 1008.0 in /  34130.9 hPa SW 33.8 mph /  54.4 km/h 38.6 mph /  62.1 km/h 66 % 0.0 in /  0 mm
15:12 14.9 °F /  -9.5 °C 8.4 °F /  -13.1 °C 1008.0 in /  34130.9 hPa SSW 27.4 mph /  44.1 km/h 40.2 mph /  64.7 km/h 65 % 0.0 in /  0 mm
15:18 14.9 °F /  -9.5 °C 8.1 °F /  -13.3 °C 1008.0 in /  34130.9 hPa SW 30.6 mph /  49.2 km/h 40.2 mph /  64.7 km/h 64 % 0.0 in /  0 mm
15:24 14.8 °F /  -9.6 °C 8.1 °F /  -13.3 °C 1008.0 in /  34130.9 hPa SW 24.1 mph /  38.8 km/h 46.7 mph /  75.2 km/h 64 % 0.0 in /  0 mm
15:30 14.6 °F /  -9.7 °C 8.3 °F /  -13.2 °C 1007.7 in /  34120.7 hPa WSW 27.4 mph /  44.1 km/h 30.6 mph /  49.2 km/h 66 % 0.0 in /  0 mm
15:36 14.5 °F /  -9.7 °C 8.0 °F /  -13.3 °C 1007.7 in /  34120.7 hPa SW 25.9 mph /  41.7 km/h 29.0 mph /  46.7 km/h 65 % 0.0 in /  0 mm
15:40 14.5 °F /  -9.7 °C 7.8 °F /  -13.4 °C 1007.7 in /  34120.7 hPa SW 20.9 mph /  33.6 km/h 35.4 mph /  57 km/h 64 % 0.0 in /  0 mm
15:46 14.2 °F /  -9.9 °C 7.9 °F /  -13.4 °C 1007.3 in /  34107.2 hPa SW 20.9 mph /  33.6 km/h 30.6 mph /  49.2 km/h 66 % 0.0 in /  0 mm
15:52 14.1 °F /  -9.9 °C 8.1 °F /  -13.3 °C 1007.3 in /  34107.2 hPa SSW 17.7 mph /  28.5 km/h 30.6 mph /  49.2 km/h 67 % 0.0 in /  0 mm
15:54 14.1 °F /  -9.9 °C 8.1 °F /  -13.3 °C 1007.3 in /  34107.2 hPa SW 20.9 mph /  33.6 km/h 32.2 mph /  51.8 km/h 67 % 0.0 in /  0 mm
16:00 14.1 °F /  -9.9 °C 7.8 °F /  -13.4 °C 1007.3 in /  34107.2 hPa SW 28.8 mph /  46.3 km/h 37.0 mph /  59.5 km/h 66 % 0.0 in /  0 mm
16:06 13.9 °F /  -10.1 °C 8.1 °F /  -13.3 °C 1007.0 in /  34097 hPa SSW 24.1 mph /  38.8 km/h 32.2 mph /  51.8 km/h 68 % 0.0 in /  0 mm
16:12 13.8 °F /  -10.1 °C 8.0 °F /  -13.3 °C 1007.3 in /  34107.2 hPa South 19.5 mph /  31.4 km/h 33.8 mph /  54.4 km/h 68 % 0.0 in /  0 mm
16:18 13.7 °F /  -10.2 °C 8.1 °F /  -13.3 °C 1007.3 in /  34107.2 hPa SSW 17.7 mph /  28.5 km/h 29.0 mph /  46.7 km/h 69 % 0.0 in /  0 mm
16:24 13.5 °F /  -10.3 °C 8.1 °F /  -13.3 °C 1007.3 in /  34107.2 hPa SW 27.4 mph /  44.1 km/h 32.2 mph /  51.8 km/h 70 % 0.0 in /  0 mm
16:30 13.4 °F /  -10.3 °C 8.0 °F /  -13.3 °C 1007.3 in /  34107.2 hPa SW 22.7 mph /  36.5 km/h 25.7 mph /  41.4 km/h 70 % 0.0 in /  0 mm
16:32 13.3 °F /  -10.4 °C 7.9 °F /  -13.4 °C 1007.3 in /  34107.2 hPa SW 20.9 mph /  33.6 km/h 25.7 mph /  41.4 km/h 70 % 0.0 in /  0 mm
16:38 13.2 °F /  -10.4 °C 7.8 °F /  -13.4 °C 1007.0 in /  34097 hPa SW 22.7 mph /  36.5 km/h 30.6 mph /  49.2 km/h 70 % 0.0 in /  0 mm
16:44 13.0 °F /  -10.6 °C 7.7 °F /  -13.5 °C 1007.3 in /  34107.2 hPa SSW 13.0 mph /  20.9 km/h 24.1 mph /  38.8 km/h 70 % 0.0 in /  0 mm
16:50 12.9 °F /  -10.6 °C 7.6 °F /  -13.6 °C 1007.3 in /  34107.2 hPa SSW 20.9 mph /  33.6 km/h 22.5 mph /  36.2 km/h 70 % 0.0 in /  0 mm
16:57 13.1 °F /  -10.5 °C 7.5 °F /  -13.6 °C 1007.3 in /  34107.2 hPa SW 20.9 mph /  33.6 km/h 20.9 mph /  33.6 km/h 69 % 0.0 in /  0 mm
17:02 13.2 °F /  -10.4 °C 7.6 °F /  -13.6 °C 1007.3 in /  34107.2 hPa WSW 22.7 mph /  36.5 km/h 22.7 mph /  36.5 km/h 69 % 0.0 in /  0 mm
17:06 13.2 °F /  -10.4 °C 7.6 °F /  -13.6 °C 1007.3 in /  34107.2 hPa WSW 24.1 mph /  38.8 km/h 29.0 mph /  46.7 km/h 69 % 0.0 in /  0 mm
17:13 13.1 °F /  -10.5 °C 7.5 °F /  -13.6 °C 1007.3 in /  34107.2 hPa WSW 16.3 mph /  26.2 km/h 30.6 mph /  49.2 km/h 69 % 0.0 in /  0 mm
17:19 13.1 °F /  -10.5 °C 7.8 °F /  -13.4 °C 1007.3 in /  34107.2 hPa SW 20.9 mph /  33.6 km/h 29.0 mph /  46.7 km/h 70 % 0.0 in /  0 mm
17:24 13.0 °F /  -10.6 °C 7.7 °F /  -13.5 °C 1007.3 in /  34107.2 hPa WSW 20.9 mph /  33.6 km/h 27.4 mph /  44.1 km/h 70 % 0.0 in /  0 mm
17:30 12.9 °F /  -10.6 °C 7.6 °F /  -13.6 °C 1007.3 in /  34107.2 hPa SW 16.3 mph /  26.2 km/h 29.0 mph /  46.7 km/h 70 % 0.0 in /  0 mm
17:36 12.8 °F /  -10.7 °C 7.9 °F /  -13.4 °C 1007.0 in /  34097 hPa SSW 13.0 mph /  20.9 km/h 27.4 mph /  44.1 km/h 72 % 0.0 in /  0 mm
17:43 12.7 °F /  -10.7 °C 7.8 °F /  -13.4 °C 1007.0 in /  34097 hPa WSW 22.7 mph /  36.5 km/h 29.0 mph /  46.7 km/h 72 % 0.0 in /  0 mm
17:49 12.8 °F /  -10.7 °C 7.9 °F /  -13.4 °C 1007.0 in /  34097 hPa SW 20.9 mph /  33.6 km/h 33.8 mph /  54.4 km/h 72 % 0.0 in /  0 mm
17:55 12.8 °F /  -10.7 °C 7.9 °F /  -13.4 °C 1007.0 in /  34097 hPa SW 20.9 mph /  33.6 km/h 29.0 mph /  46.7 km/h 72 % 0.0 in /  0 mm
18:01 12.8 °F /  -10.7 °C 7.9 °F /  -13.4 °C 1007.3 in /  34107.2 hPa SW 13.0 mph /  20.9 km/h 22.5 mph /  36.2 km/h 72 % 0.0 in /  0 mm
18:06 12.8 °F /  -10.7 °C 7.9 °F /  -13.4 °C 1007.3 in /  34107.2 hPa SW 22.7 mph /  36.5 km/h 32.2 mph /  51.8 km/h 72 % 0.0 in /  0 mm
18:13 12.8 °F /  -10.7 °C 8.1 °F /  -13.3 °C 1007.3 in /  34107.2 hPa WSW 20.9 mph /  33.6 km/h 29.0 mph /  46.7 km/h 73 % 0.0 in /  0 mm
18:19 12.6 °F /  -10.8 °C 8.5 °F /  -13.1 °C 1007.7 in /  34120.7 hPa WSW 14.3 mph /  23 km/h 29.0 mph /  46.7 km/h 76 % 0.0 in /  0 mm
18:25 12.1 °F /  -11.1 °C 8.8 °F /  -12.9 °C 1007.7 in /  34120.7 hPa WSW 19.5 mph /  31.4 km/h 35.4 mph /  57 km/h 80 % 0.0 in /  0 mm
18:31 11.6 °F /  -11.3 °C 8.8 °F /  -12.9 °C 1008.0 in /  34130.9 hPa West 16.3 mph /  26.2 km/h 35.4 mph /  57 km/h 83 % 0.3 in /  7.62 mm
18:37 11.2 °F /  -11.6 °C 8.9 °F /  -12.8 °C 1008.0 in /  34130.9 hPa SW 35.2 mph /  56.6 km/h 35.4 mph /  57 km/h 86 % 0.3 in /  7.62 mm
18:43 10.9 °F /  -11.7 °C 9.0 °F /  -12.8 °C 1008.0 in /  34130.9 hPa SW 14.3 mph /  23 km/h 29.0 mph /  46.7 km/h 88 % 0.5 in /  12.7 mm
18:49 10.7 °F /  -11.8 °C 9.0 °F /  -12.8 °C 1008.4 in /  34144.4 hPa WSW 17.7 mph /  28.5 km/h 30.6 mph /  49.2 km/h 89 % 0.8 in /  20.32 mm
18:55 10.6 °F /  -11.9 °C 9.0 °F /  -12.8 °C 1008.4 in /  34144.4 hPa SW 14.3 mph /  23 km/h 29.0 mph /  46.7 km/h 90 % 1.0 in /  25.4 mm
19:01 10.4 °F /  -12 °C 8.8 °F /  -12.9 °C 1008.4 in /  34144.4 hPa WSW 13.0 mph /  20.9 km/h 33.8 mph /  54.4 km/h 90 % 1.3 in /  33.02 mm
19:07 10.3 °F /  -12.1 °C 8.6 °F /  -13 °C 1008.7 in /  34154.6 hPa WSW 24.1 mph /  38.8 km/h 35.4 mph /  57 km/h 89 % 1.5 in /  38.1 mm
19:15 10.3 °F /  -12.1 °C 8.6 °F /  -13 °C 1009.0 in /  34164.7 hPa West 24.1 mph /  38.8 km/h 40.2 mph /  64.7 km/h 89 % 1.5 in /  38.1 mm
19:23 10.2 °F /  -12.1 °C 8.6 °F /  -13 °C 1009.0 in /  34164.7 hPa WSW 13.0 mph /  20.9 km/h 22.5 mph /  36.2 km/h 90 % 1.5 in /  38.1 mm
19:27 10.1 °F /  -12.2 °C 8.5 °F /  -13.1 °C 1009.0 in /  34164.7 hPa WSW 6.4 mph /  10.3 km/h 25.7 mph /  41.4 km/h 90 % 1.5 in /  38.1 mm
19:33 10.1 °F /  -12.2 °C 8.7 °F /  -12.9 °C 1009.0 in /  34164.7 hPa SSW 13.0 mph /  20.9 km/h 22.5 mph /  36.2 km/h 91 % 1.5 in /  38.1 mm
19:41 9.9 °F /  -12.3 °C 8.7 °F /  -12.9 °C 1009.0 in /  34164.7 hPa WSW 13.0 mph /  20.9 km/h 14.5 mph /  23.3 km/h 92 % 1.5 in /  38.1 mm
19:45 9.9 °F /  -12.3 °C 8.7 °F /  -12.9 °C 1009.0 in /  34164.7 hPa SW 7.9 mph /  12.7 km/h 12.9 mph /  20.8 km/h 92 % 1.3 in /  33.02 mm
19:51 9.8 °F /  -12.3 °C 8.6 °F /  -13 °C 1009.0 in /  34164.7 hPa West 11.1 mph /  17.9 km/h 20.9 mph /  33.6 km/h 92 % 1.5 in /  38.1 mm
19:53 9.8 °F /  -12.3 °C 8.7 °F /  -12.9 °C 1009.0 in /  34164.7 hPa SW 7.9 mph /  12.7 km/h 16.1 mph /  25.9 km/h 93 % 1.8 in /  45.72 mm
19:59 9.8 °F /  -12.3 °C 8.7 °F /  -12.9 °C 1009.4 in /  34178.3 hPa WSW 9.7 mph /  15.6 km/h 24.1 mph /  38.8 km/h 93 % 2.0 in /  50.8 mm
20:01 9.8 °F /  -12.3 °C 8.9 °F /  -12.8 °C 1009.0 in /  34164.7 hPa SW 27.4 mph /  44.1 km/h 27.4 mph /  44.1 km/h 94 % 2.0 in /  50.8 mm
20:07 9.8 °F /  -12.3 °C 8.7 °F /  -12.9 °C 1009.0 in /  34164.7 hPa SW 16.3 mph /  26.2 km/h 27.4 mph /  44.1 km/h 93 % 2.3 in /  58.42 mm
20:13 9.7 °F /  -12.4 °C 8.6 °F /  -13 °C 1009.4 in /  34178.3 hPa WSW 30.6 mph /  49.2 km/h 37.0 mph /  59.5 km/h 93 % 2.3 in /  58.42 mm
20:15 9.7 °F /  -12.4 °C 8.5 °F /  -13.1 °C 1009.4 in /  34178.3 hPa WSW 27.4 mph /  44.1 km/h 37.0 mph /  59.5 km/h 92 % 2.3 in /  58.42 mm
20:21 9.6 °F /  -12.4 °C 8.4 °F /  -13.1 °C 1009.7 in /  34188.4 hPa WSW 32.0 mph /  51.5 km/h 32.2 mph /  51.8 km/h 92 % 2.3 in /  58.42 mm
20:27 9.6 °F /  -12.4 °C 8.4 °F /  -13.1 °C 1009.7 in /  34188.4 hPa SSW 25.9 mph /  41.7 km/h 32.2 mph /  51.8 km/h 92 % 2.3 in /  58.42 mm
20:33 9.5 °F /  -12.5 °C 8.1 °F /  -13.3 °C 1009.7 in /  34188.4 hPa WSW 20.9 mph /  33.6 km/h 30.6 mph /  49.2 km/h 91 % 2.5 in /  63.5 mm
20:39 9.4 °F /  -12.6 °C 8.0 °F /  -13.3 °C 1010.0 in /  34198.6 hPa WSW 17.7 mph /  28.5 km/h 35.4 mph /  57 km/h 91 % 2.5 in /  63.5 mm
20:47 9.4 °F /  -12.6 °C 8.0 °F /  -13.3 °C 1010.0 in /  34198.6 hPa SSW 24.1 mph /  38.8 km/h 37.0 mph /  59.5 km/h 91 % 2.3 in /  58.42 mm
20:53 9.3 °F /  -12.6 °C 7.9 °F /  -13.4 °C 1010.4 in /  34212.1 hPa SW 20.9 mph /  33.6 km/h 43.4 mph /  69.8 km/h 91 % 1.5 in /  38.1 mm
20:59 9.3 °F /  -12.6 °C 7.9 °F /  -13.4 °C 1010.4 in /  34212.1 hPa SW 20.9 mph /  33.6 km/h 33.8 mph /  54.4 km/h 91 % 1.3 in /  33.02 mm
21:05 9.2 °F /  -12.7 °C 7.6 °F /  -13.6 °C 1010.4 in /  34212.1 hPa SSW 35.2 mph /  56.6 km/h 40.2 mph /  64.7 km/h 90 % 0.8 in /  20.32 mm
21:11 9.2 °F /  -12.7 °C 7.3 °F /  -13.7 °C 1010.4 in /  34212.1 hPa WSW 19.5 mph /  31.4 km/h 35.4 mph /  57 km/h 88 % 0.5 in /  12.7 mm
21:17 9.1 °F /  -12.7 °C 7.4 °F /  -13.7 °C 1010.4 in /  34212.1 hPa SW 19.5 mph /  31.4 km/h 32.2 mph /  51.8 km/h 89 % 0.5 in /  12.7 mm
21:23 9.0 °F /  -12.8 °C 7.3 °F /  -13.7 °C 1010.4 in /  34212.1 hPa WSW 19.5 mph /  31.4 km/h 29.0 mph /  46.7 km/h 89 % 0.5 in /  12.7 mm
21:29 8.9 °F /  -12.8 °C 7.2 °F /  -13.8 °C 1010.7 in /  34222.3 hPa West 17.7 mph /  28.5 km/h 33.8 mph /  54.4 km/h 89 % 0.3 in /  7.62 mm
21:35 8.8 °F /  -12.9 °C 6.9 °F /  -13.9 °C 1010.7 in /  34222.3 hPa West 13.0 mph /  20.9 km/h 27.4 mph /  44.1 km/h 88 % 0.5 in /  12.7 mm
21:41 8.7 °F /  -12.9 °C 7.2 °F /  -13.8 °C 1010.7 in /  34222.3 hPa West 14.3 mph /  23 km/h 30.6 mph /  49.2 km/h 90 % 0.5 in /  12.7 mm
21:47 8.6 °F /  -13 °C 7.2 °F /  -13.8 °C 1011.1 in /  34235.8 hPa West 13.0 mph /  20.9 km/h 20.9 mph /  33.6 km/h 91 % 0.5 in /  12.7 mm
21:51 8.6 °F /  -13 °C 7.4 °F /  -13.7 °C 1011.1 in /  34235.8 hPa SW 11.1 mph /  17.9 km/h 20.9 mph /  33.6 km/h 92 % 0.5 in /  12.7 mm
21:57 8.5 °F /  -13.1 °C 7.3 °F /  -13.7 °C 1010.7 in /  34222.3 hPa SSW 13.0 mph /  20.9 km/h 24.1 mph /  38.8 km/h 92 % 0.5 in /  12.7 mm
22:03 8.6 °F /  -13 °C 7.2 °F /  -13.8 °C 1011.1 in /  34235.8 hPa SW 17.7 mph /  28.5 km/h 29.0 mph /  46.7 km/h 91 % 0.3 in /  7.62 mm
22:09 8.7 °F /  -12.9 °C 7.3 °F /  -13.7 °C 1011.1 in /  34235.8 hPa SW 19.5 mph /  31.4 km/h 24.1 mph /  38.8 km/h 91 % 0.3 in /  7.62 mm
22:15 8.7 °F /  -12.9 °C 7.3 °F /  -13.7 °C 1011.1 in /  34235.8 hPa West 9.7 mph /  15.6 km/h 19.3 mph /  31.1 km/h 91 % 0.3 in /  7.62 mm
22:21 8.7 °F /  -12.9 °C 7.2 °F /  -13.8 °C 1011.4 in /  34246 hPa SW 24.1 mph /  38.8 km/h 27.4 mph /  44.1 km/h 90 % 0.3 in /  7.62 mm
22:27 8.8 °F /  -12.9 °C 7.2 °F /  -13.8 °C 1011.4 in /  34246 hPa WSW 20.9 mph /  33.6 km/h 32.2 mph /  51.8 km/h 90 % 0.3 in /  7.62 mm
22:33 8.8 °F /  -12.9 °C 7.2 °F /  -13.8 °C 1011.4 in /  34246 hPa SSW 14.3 mph /  23 km/h 20.9 mph /  33.6 km/h 90 % 0.0 in /  0 mm
22:39 8.8 °F /  -12.9 °C 7.1 °F /  -13.8 °C 1011.7 in /  34256.2 hPa WSW 25.9 mph /  41.7 km/h 25.9 mph /  41.7 km/h 89 % 0.0 in /  0 mm
22:45 8.8 °F /  -12.9 °C 7.1 °F /  -13.8 °C 1011.7 in /  34256.2 hPa WSW 28.8 mph /  46.3 km/h 32.2 mph /  51.8 km/h 89 % 0.0 in /  0 mm
22:51 8.7 °F /  -12.9 °C 7.0 °F /  -13.9 °C 1011.7 in /  34256.2 hPa WSW 11.1 mph /  17.9 km/h 19.3 mph /  31.1 km/h 89 % 0.0 in /  0 mm
22:57 8.6 °F /  -13 °C 6.9 °F /  -13.9 °C 1011.7 in /  34256.2 hPa WSW 22.7 mph /  36.5 km/h 32.2 mph /  51.8 km/h 89 % 0.0 in /  0 mm
23:03 8.6 °F /  -13 °C 6.7 °F /  -14.1 °C 1011.7 in /  34256.2 hPa SW 14.3 mph /  23 km/h 22.5 mph /  36.2 km/h 88 % 0.0 in /  0 mm
23:09 8.5 °F /  -13.1 °C 6.6 °F /  -14.1 °C 1012.1 in /  34269.7 hPa WNW 11.1 mph /  17.9 km/h 27.4 mph /  44.1 km/h 88 % 0.0 in /  0 mm
23:15 8.4 °F /  -13.1 °C 6.5 °F /  -14.2 °C 1012.1 in /  34269.7 hPa West 9.7 mph /  15.6 km/h 22.5 mph /  36.2 km/h 88 % 0.0 in /  0 mm
23:21 8.4 °F /  -13.1 °C 6.5 °F /  -14.2 °C 1012.1 in /  34269.7 hPa WSW 7.9 mph /  12.7 km/h 25.7 mph /  41.4 km/h 88 % 0.0 in /  0 mm
23:27 8.4 °F /  -13.1 °C 6.5 °F /  -14.2 °C 1012.1 in /  34269.7 hPa WSW 9.7 mph /  15.6 km/h 22.5 mph /  36.2 km/h 88 % 0.0 in /  0 mm
23:33 8.4 °F /  -13.1 °C 6.5 °F /  -14.2 °C 1012.1 in /  34269.7 hPa West 16.3 mph /  26.2 km/h 20.9 mph /  33.6 km/h 88 % 0.0 in /  0 mm
23:39 8.4 °F /  -13.1 °C 6.4 °F /  -14.2 °C 1012.1 in /  34269.7 hPa WSW 14.3 mph /  23 km/h 30.6 mph /  49.2 km/h 87 % 0.0 in /  0 mm
23:43 8.4 °F /  -13.1 °C 6.4 °F /  -14.2 °C 1012.4 in /  34279.9 hPa SW 16.3 mph /  26.2 km/h 30.6 mph /  49.2 km/h 87 % 0.0 in /  0 mm
23:49 8.3 °F /  -13.2 °C 6.3 °F /  -14.3 °C 1012.4 in /  34279.9 hPa West 22.7 mph /  36.5 km/h 24.1 mph /  38.8 km/h 87 % 0.0 in /  0 mm
23:55 8.3 °F /  -13.2 °C 6.3 °F /  -14.3 °C 1012.4 in /  34279.9 hPa WSW 19.5 mph /  31.4 km/h 29.0 mph /  46.7 km/h 87 % 0.0 in /  0 mm
Meteo18
Compliments of Weather Underground - 4 mb

Script developed by  Jim McMurry - jmcmurry@mwt.net Adapted for the template by  Wim van der Kuil - Leuven-Template.eu

You find our weather info also at:

European Weather Network

Weather Underground

Equipment we use:

Weather-station
Davis Vue

Weather-program
Meteobridge

Weather-server
Raspberry PI 2 B+

Provider
1 and 1

Davis Vue

Meteobridge

Raspberry PI 2 B+

1 and 1